Time;durP1;ratioP1;P1;durP2;ratioP2;P2;SDS_P1;SDS_P2;PMS_P1;PMS_P2;Temp;Humidity;BMP_temperature;BMP_pressure;BME280_temperature;BME280_humidity;BME280_pressure;Samples;Min_cycle;Max_cycle;Signal;HPM_P1;HPM_P2
2023/06/05 00:00:47;;;;;;;5.30;2.03;;;16.50;98.00;;;15.93;95.16;101361.06;4122151;28;20023;-76
2023/06/05 00:02:48;;;;;;;5.05;2.42;;;16.50;98.10;;;15.89;95.54;101353.59;4125219;28;20516;-76
2023/06/05 00:04:49;;;;;;;4.40;1.83;;;16.50;98.20;;;15.98;95.76;101374.66;4131807;28;20038;-76
2023/06/05 00:06:53;;;;;;;4.20;1.50;;;16.50;98.30;;;15.88;95.70;101362.59;4121860;28;20023;-77
2023/06/05 00:08:53;;;;;;;5.13;1.90;;;16.40;98.30;;;15.90;96.06;101366.72;4120842;28;20482;-77
2023/06/05 00:10:54;;;;;;;3.47;1.38;;;16.40;98.30;;;15.76;96.16;101356.00;4121072;28;20086;-77
2023/06/05 00:12:55;;;;;;;5.15;2.00;;;16.40;98.40;;;15.82;96.61;101373.94;4129441;28;20475;-76
2023/06/05 00:14:56;;;;;;;12.38;2.15;;;16.30;98.40;;;15.68;97.01;101356.06;4120660;28;20051;-76
2023/06/05 00:16:57;;;;;;;4.15;2.00;;;16.30;98.60;;;15.70;96.93;101365.50;4123083;28;20070;-76
2023/06/05 00:18:58;;;;;;;4.47;1.98;;;16.20;98.50;;;15.73;96.79;101373.16;4121916;28;20023;-77
2023/06/05 00:20:59;;;;;;;2.95;1.73;;;16.20;98.60;;;15.61;97.44;101355.09;4120398;28;20533;-76
2023/06/05 00:23:00;;;;;;;2.90;1.83;;;16.20;98.70;;;15.61;98.26;101371.03;4122779;28;20105;-76
2023/06/05 00:25:01;;;;;;;7.40;2.03;;;16.20;98.90;;;15.46;99.15;101350.47;4121739;28;20027;-76
2023/06/05 00:27:02;;;;;;;3.97;1.35;;;16.10;99.00;;;15.57;99.75;101385.69;4121833;28;20029;-76
2023/06/05 00:29:03;;;;;;;8.07;2.63;;;16.00;99.10;;;15.50;100.00;101385.56;4120736;28;20027;-76
2023/06/05 00:31:05;;;;;;;5.82;2.13;;;15.90;99.30;;;15.32;100.00;101358.34;4136551;28;20022;-76
2023/06/05 00:33:06;;;;;;;2.45;1.50;;;15.90;99.40;;;15.30;100.00;101352.34;4120455;28;20031;-77
2023/06/05 00:35:08;;;;;;;7.47;2.05;;;15.90;99.50;;;15.18;100.00;101349.22;4121415;28;20077;-77
2023/06/05 00:37:11;;;;;;;3.30;1.80;;;15.80;99.70;;;15.19;100.00;101369.50;4121778;28;20030;-77
2023/06/05 00:39:12;;;;;;;6.22;2.17;;;15.80;99.80;;;15.25;100.00;101368.81;4121595;28;20390;-76
2023/06/05 00:41:13;;;;;;;5.53;1.80;;;15.70;99.90;;;15.14;100.00;101366.50;4125544;28;20033;-76
2023/06/05 00:43:14;;;;;;;5.60;1.80;;;15.70;99.90;;;15.11;100.00;101366.03;4121758;28;20105;-77
2023/06/05 00:45:14;;;;;;;3.42;1.88;;;15.70;99.90;;;15.11;100.00;101374.84;4121799;28;20035;-76
2023/06/05 00:47:15;;;;;;;3.95;1.75;;;15.60;99.90;;;15.13;100.00;101367.53;4104395;28;20455;-76
2023/06/05 00:49:17;;;;;;;5.07;1.92;;;15.70;99.90;;;15.01;100.00;101352.94;4121639;28;20077;-76
2023/06/05 00:51:19;;;;;;;4.38;1.83;;;15.60;99.90;;;15.11;100.00;101377.50;4121012;28;20026;-76
2023/06/05 00:53:21;;;;;;;6.47;1.98;;;15.60;99.90;;;15.06;100.00;101376.34;4126016;28;20056;-76
2023/06/05 00:55:22;;;;;;;6.95;2.75;;;15.50;99.90;;;14.98;100.00;101352.44;4158363;28;20058;-76
2023/06/05 00:57:26;;;;;;;3.80;1.75;;;15.50;99.90;;;14.96;100.00;101357.94;4126701;28;20031;-76
2023/06/05 00:59:29;;;;;;;2.40;1.35;;;15.50;99.90;;;14.89;100.00;101354.31;4134536;28;20023;-76
2023/06/05 01:01:30;;;;;;;10.70;2.20;;;15.50;99.90;;;14.92;100.00;101367.25;4120340;28;20034;-76
2023/06/05 01:03:33;;;;;;;3.97;2.00;;;15.40;99.90;;;14.77;100.00;101355.66;4128961;28;20026;-77
2023/06/05 01:05:36;;;;;;;7.30;2.03;;;15.40;99.90;;;14.78;100.00;101357.31;4120090;28;20030;-76
2023/06/05 01:07:37;;;;;;;6.07;2.28;;;15.30;99.90;;;14.70;100.00;101350.16;4149102;28;20379;-77
2023/06/05 01:09:39;;;;;;;5.63;1.88;;;15.40;99.90;;;14.74;100.00;101350.66;4120221;28;20090;-76
2023/06/05 01:12:05;;;;;;;3.38;1.55;;;15.30;99.90;;;14.88;100.00;101372.06;4120020;28;20482;-76
2023/06/05 01:14:27;;;;;;;3.78;2.42;;;15.30;99.90;;;14.92;100.00;101375.22;4121204;28;20031;-76
2023/06/05 01:16:32;;;;;;;4.57;2.20;;;15.30;99.90;;;14.83;100.00;101366.44;4121479;28;20049;-77
2023/06/05 01:18:33;;;;;;;5.00;1.98;;;15.30;99.90;;;14.83;100.00;101379.72;4119745;28;20019;-76
2023/06/05 01:20:36;;;;;;;3.88;1.70;;;15.30;99.90;;;14.72;100.00;101360.63;4119564;28;20019;-77
2023/06/05 01:22:40;;;;;;;3.40;1.67;;;15.30;99.90;;;14.63;100.00;101346.53;4127327;28;20105;-77
2023/06/05 01:24:41;;;;;;;3.45;2.20;;;15.20;99.90;;;14.63;100.00;101346.53;4137149;28;20076;-76
2023/06/05 01:26:42;;;;;;;9.23;3.03;;;15.20;99.90;;;14.74;100.00;101367.44;4135651;28;20124;-76
2023/06/05 01:28:47;;;;;;;5.85;2.28;;;15.20;99.90;;;14.69;100.00;101359.16;4136985;28;20030;-76
2023/06/05 01:31:00;;;;;;;;;;;15.20;99.90;;;14.60;100.00;101359.31;4120363;28;20042;-76
2023/06/05 01:33:25;;;;;;;4.75;1.70;;;15.20;99.90;;;14.56;100.00;101364.13;4151099;28;19909;-77
2023/06/05 01:35:32;;;;;;;6.85;2.05;;;15.10;99.90;;;14.54;100.00;101367.94;4135054;28;20458;-76
2023/06/05 01:37:40;;;;;;;8.55;2.08;;;15.10;99.90;;;14.42;100.00;101350.69;4136150;28;20084;-76
2023/06/05 01:39:43;;;;;;;6.03;2.25;;;15.00;99.90;;;14.41;100.00;101355.16;4136651;28;20023;-76
2023/06/05 01:41:46;;;;;;;3.90;1.88;;;15.00;99.90;;;14.34;100.00;101352.34;4136950;28;20029;-76
2023/06/05 01:43:50;;;;;;;6.13;2.00;;;14.90;99.90;;;14.24;100.00;101341.03;4136961;28;20026;-76
2023/06/05 01:45:52;;;;;;;3.10;1.58;;;14.90;99.90;;;14.21;100.00;101349.34;4124403;28;20027;-76
2023/06/05 01:47:54;;;;;;;10.85;2.30;;;14.80;99.90;;;14.15;100.00;101344.69;4120385;28;20118;-76
2023/06/05 01:49:55;;;;;;;4.70;1.58;;;14.80;99.90;;;14.23;100.00;101357.94;4119400;28;20031;-77
2023/06/05 01:51:56;;;;;;;4.45;2.20;;;14.70;99.90;;;14.06;100.00;101335.06;4120285;28;20042;-76
2023/06/05 01:53:57;;;;;;;5.28;2.53;;;14.70;99.90;;;14.14;100.00;101355.44;4120479;28;20498;-76
2023/06/05 01:55:58;;;;;;;5.47;2.08;;;14.70;99.90;;;14.08;100.00;101346.31;4131707;28;20533;-76
2023/06/05 01:57:59;;;;;;;5.65;1.90;;;14.70;99.90;;;14.13;100.00;101361.75;4151612;28;20022;-77
2023/06/05 02:00:07;;;;;;;3.65;1.80;;;14.60;99.90;;;14.16;100.00;101364.91;4136483;28;20030;-76
2023/06/05 02:02:08;;;;;;;4.20;1.92;;;14.60;99.90;;;14.02;100.00;101336.38;4136389;28;20026;-77
2023/06/05 02:04:18;;;;;;;4.95;2.03;;;14.60;99.90;;;14.00;100.00;101341.00;4119029;28;20114;-76
2023/06/05 02:06:20;;;;;;;3.10;1.73;;;14.60;99.90;;;14.01;100.00;101342.66;4133928;28;20046;-76
2023/06/05 02:08:22;;;;;;;5.53;1.90;;;14.60;99.90;;;13.96;100.00;101338.84;4142436;28;20030;-76
2023/06/05 02:10:23;;;;;;;5.63;2.25;;;14.50;99.90;;;13.90;100.00;101332.38;4120382;28;20095;-77
2023/06/05 02:12:26;;;;;;;5.90;2.10;;;14.50;99.90;;;13.87;100.00;101338.00;4118936;28;20560;-77
2023/06/05 02:14:27;;;;;;;2.65;1.60;;;14.50;99.90;;;13.89;100.00;101343.16;4120429;28;20035;-76
2023/06/05 02:16:28;;;;;;;7.25;2.55;;;14.50;99.90;;;14.00;100.00;101361.41;4134761;28;20065;-77
2023/06/05 02:18:30;;;;;;;3.80;1.92;;;14.40;99.90;;;13.91;100.00;101347.28;4135688;28;20064;-76
2023/06/05 02:20:32;;;;;;;5.55;2.10;;;14.40;99.90;;;13.83;100.00;101341.97;4119277;28;20028;-76
2023/06/05 02:22:33;;;;;;;5.32;2.20;;;14.40;99.90;;;13.87;100.00;101351.25;4125926;28;20026;-76
2023/06/05 02:24:34;;;;;;;7.00;1.98;;;14.40;99.90;;;13.76;100.00;101333.00;4136122;28;20045;-76
2023/06/05 02:26:35;;;;;;;6.07;2.08;;;14.40;99.90;;;13.90;100.00;101352.75;4135000;28;20493;-76
2023/06/05 02:28:36;;;;;;;5.63;2.03;;;14.40;99.90;;;13.77;100.00;101334.66;4136036;28;20072;-77
2023/06/05 02:30:37;;;;;;;5.05;3.08;;;14.30;99.90;;;13.70;100.00;101331.00;4136120;28;20041;-76
2023/06/05 02:32:43;;;;;;;5.57;2.05;;;14.30;99.90;;;13.72;100.00;101336.97;4136106;28;20026;-76
2023/06/05 02:34:47;;;;;;;5.80;3.25;;;14.30;99.90;;;13.68;100.00;101335.63;4134873;28;20022;-76
2023/06/05 02:36:49;;;;;;;4.18;1.80;;;14.30;99.90;;;13.77;100.00;101359.34;4119837;28;20031;-76
2023/06/05 02:38:52;;;;;;;5.38;2.03;;;14.30;99.90;;;13.64;100.00;101339.59;4120053;28;20065;-76
2023/06/05 02:40:52;;;;;;;8.85;2.50;;;14.20;99.90;;;13.54;100.00;101318.53;4119955;28;20018;-76
2023/06/05 02:42:55;;;;;;;5.35;2.00;;;14.20;99.90;;;13.54;100.00;101329.13;4119876;28;20509;-76
2023/06/05 02:44:56;;;;;;;4.55;1.83;;;14.20;99.90;;;13.68;100.00;101348.88;4120458;28;20023;-76
2023/06/05 02:46:57;;;;;;;6.22;2.40;;;14.20;99.90;;;13.65;100.00;101343.91;4121843;28;20461;-76
2023/06/05 02:48:58;;;;;;;4.40;2.00;;;14.20;99.90;;;13.58;100.00;101329.66;4106108;28;20114;-76
2023/06/05 02:50:59;;;;;;;3.83;1.92;;;14.10;99.90;;;13.68;100.00;101347.06;4137923;28;20653;-76
2023/06/05 02:53:00;;;;;;;5.97;2.38;;;14.20;99.90;;;13.57;100.00;101333.28;4121915;28;20034;-76
2023/06/05 02:55:05;;;;;;;4.82;2.13;;;14.10;99.90;;;13.62;100.00;101352.19;4127189;28;20019;-76
2023/06/05 02:57:07;;;;;;;5.88;2.00;;;14.10;99.90;;;13.45;100.00;101331.91;4130440;28;20025;-76
2023/06/05 02:59:09;;;;;;;3.33;1.90;;;14.10;99.90;;;13.43;100.00;101333.91;4121899;28;20029;-76
2023/06/05 03:01:11;;;;;;;5.22;2.35;;;14.00;99.90;;;13.51;100.00;101349.81;4122955;28;20027;-76
2023/06/05 03:03:12;;;;;;;4.63;2.10;;;14.00;99.90;;;13.32;100.00;101324.41;4129506;28;20018;-76
2023/06/05 03:05:14;;;;;;;4.53;2.17;;;14.00;99.90;;;13.30;100.00;101332.50;4134709;28;20030;-77
2023/06/05 03:07:16;;;;;;;10.07;2.40;;;13.90;99.90;;;13.25;100.00;101328.69;4126010;28;20031;-76
2023/06/05 03:09:17;;;;;;;5.10;2.25;;;13.90;99.90;;;13.28;100.00;101331.84;4123070;28;20027;-76
2023/06/05 03:11:18;;;;;;;6.65;2.70;;;13.90;99.90;;;13.37;100.00;101337.19;4121893;28;20030;-76
2023/06/05 03:13:19;;;;;;;6.28;3.15;;;13.90;99.90;;;13.30;100.00;101327.22;4121893;28;20509;-76
2023/06/05 03:15:20;;;;;;;7.80;2.20;;;13.90;99.90;;;13.28;100.00;101331.03;4128951;28;20051;-76
2023/06/05 03:17:23;;;;;;;8.30;2.50;;;13.90;99.90;;;13.41;100.00;101349.94;4123081;28;20046;-76
2023/06/05 03:19:25;;;;;;;8.77;2.90;;;13.90;99.90;;;13.32;100.00;101332.34;4134393;28;20044;-76
2023/06/05 03:21:25;;;;;;;5.57;2.40;;;13.90;99.90;;;13.29;100.00;101324.72;4137488;28;20034;-76
2023/06/05 03:23:28;;;;;;;4.68;2.35;;;13.80;99.90;;;13.33;100.00;101352.56;4137518;28;20042;-76
2023/06/05 03:25:29;;;;;;;9.60;2.17;;;13.80;99.90;;;13.14;100.00;101311.25;4135819;28;20042;-76
2023/06/05 03:27:30;;;;;;;5.65;2.20;;;13.80;99.90;;;13.16;100.00;101330.47;4123023;28;20035;-76
2023/06/05 03:29:31;;;;;;;4.95;2.15;;;13.80;99.90;;;13.13;100.00;101330.78;4105329;28;20538;-76
2023/06/05 03:31:32;;;;;;;6.45;2.67;;;13.80;99.90;;;13.15;100.00;101338.56;4121298;28;20031;-76
2023/06/05 03:33:32;;;;;;;6.05;2.38;;;13.80;99.90;;;13.07;100.00;101320.78;4121303;28;20034;-76
2023/06/05 03:35:34;;;;;;;5.65;2.80;;;13.70;99.90;;;13.08;100.00;101338.34;4124574;28;20041;-76
2023/06/05 03:37:35;;;;;;;6.95;2.60;;;13.70;99.90;;;13.12;100.00;101342.38;4122596;28;20027;-76
2023/06/05 03:39:36;;;;;;;4.78;2.33;;;13.70;99.90;;;13.06;100.00;101328.88;4121373;28;20038;-76
2023/06/05 03:41:37;;;;;;;6.47;2.35;;;13.70;99.90;;;13.09;100.00;101333.91;4121478;28;20026;-76
2023/06/05 03:43:38;;;;;;;4.15;2.85;;;13.70;99.90;;;13.09;100.00;101340.03;4122437;28;20529;-76
2023/06/05 03:45:42;;;;;;;7.50;3.00;;;13.70;99.90;;;13.12;100.00;101347.66;4130908;28;20065;-76
2023/06/05 03:47:44;;;;;;;7.65;2.47;;;13.70;99.90;;;13.02;100.00;101338.16;4137430;28;20120;-76
2023/06/05 03:49:47;;;;;;;4.88;2.58;;;13.70;99.90;;;13.04;100.00;101352.91;4138346;28;20133;-76
2023/06/05 03:51:48;;;;;;;8.95;2.60;;;13.60;99.90;;;13.06;100.00;101358.00;4120885;28;20037;-76
2023/06/05 03:53:54;;;;;;;7.70;2.90;;;13.60;99.90;;;13.00;100.00;101359.47;4138719;28;20563;-76
2023/06/05 03:55:56;;;;;;;9.20;2.67;;;13.50;99.90;;;12.76;100.00;101328.38;4137180;28;20030;-76
2023/06/05 03:57:57;;;;;;;6.00;2.47;;;13.50;99.90;;;12.81;100.00;101335.88;4136457;28;20522;-76
2023/06/05 03:59:58;;;;;;;5.50;2.13;;;13.50;99.90;;;12.92;100.00;101362.09;4153467;28;20536;-76
2023/06/05 04:01:59;;;;;;;5.57;2.72;;;13.40;99.90;;;12.78;100.00;101336.19;4128426;28;20035;-76
2023/06/05 04:04:00;;;;;;;6.90;2.75;;;13.40;99.90;;;12.75;100.00;101336.50;4134979;28;20041;-76
2023/06/05 04:06:02;;;;;;;5.22;2.40;;;13.40;99.90;;;12.73;100.00;101327.84;4129823;28;20030;-76
2023/06/05 04:08:03;;;;;;;7.43;2.83;;;13.40;99.90;;;12.75;100.00;101339.16;4121909;28;20035;-76
2023/06/05 04:10:04;;;;;;;7.43;2.45;;;13.30;99.90;;;12.82;100.00;101353.41;4120966;28;20031;-76
2023/06/05 04:12:06;;;;;;;5.95;2.80;;;13.30;99.90;;;12.76;100.00;101348.72;4132909;28;20061;-76
2023/06/05 04:14:07;;;;;;;6.68;2.63;;;13.30;99.90;;;12.63;100.00;101343.03;4153055;28;20440;-76
2023/06/05 04:16:09;;;;;;;4.95;2.47;;;13.20;99.90;;;12.55;100.00;101332.38;4131649;28;20046;-76
2023/06/05 04:18:09;;;;;;;6.60;2.63;;;13.20;99.90;;;12.48;100.00;101334.81;4104662;28;20499;-76
2023/06/05 04:20:14;;;;;;;6.57;2.70;;;13.20;99.90;;;12.66;100.00;101361.25;4121775;28;20042;-76
2023/06/05 04:22:15;;;;;;;7.68;2.80;;;13.20;99.90;;;12.51;100.00;101345.09;4125517;28;20050;-76
2023/06/05 04:24:16;;;;;;;8.88;2.92;;;13.10;99.90;;;12.47;100.00;101342.91;4136904;28;20026;-76
2023/06/05 04:26:17;;;;;;;5.20;2.70;;;13.10;99.90;;;12.43;100.00;101346.81;4128093;28;20037;-76
2023/06/05 04:28:18;;;;;;;5.63;2.50;;;13.10;99.90;;;12.36;100.00;101346.63;4121875;28;20038;-76
2023/06/05 04:30:19;;;;;;;11.07;3.28;;;13.00;99.90;;;12.51;100.00;101376.00;4107606;28;20030;-76
2023/06/05 04:32:20;;;;;;;8.00;3.33;;;13.00;99.90;;;12.34;100.00;101340.63;4121754;28;20027;-76
2023/06/05 04:34:21;;;;;;;7.45;2.78;;;13.00;99.90;;;12.39;100.00;101353.44;4120607;28;20022;-76
2023/06/05 04:36:22;;;;;;;8.18;3.33;;;13.00;99.90;;;12.40;100.00;101347.13;4122235;28;20035;-76
2023/06/05 04:38:23;;;;;;;6.30;3.40;;;13.00;99.90;;;12.49;100.00;101362.91;4121495;28;20034;-76
2023/06/05 04:40:24;;;;;;;5.72;2.95;;;13.00;99.90;;;12.52;100.00;101361.78;4121852;28;20073;-76
2023/06/05 04:42:25;;;;;;;7.05;2.97;;;13.00;99.90;;;12.57;100.00;101367.47;4121599;28;20091;-76
2023/06/05 04:44:26;;;;;;;6.13;2.53;;;13.00;99.90;;;12.53;100.00;101353.69;4121483;28;20066;-76
2023/06/05 04:46:27;;;;;;;10.52;3.85;;;13.10;99.90;;;12.50;100.00;101353.19;4133326;28;20049;-76
2023/06/05 04:48:30;;;;;;;8.18;2.53;;;13.10;99.90;;;12.60;100.00;101364.50;4121532;28;20027;-76
2023/06/05 04:50:31;;;;;;;8.77;2.83;;;13.10;99.90;;;12.61;100.00;101371.44;4121205;28;20026;-76
2023/06/05 04:52:33;;;;;;;7.20;3.17;;;13.10;99.90;;;12.53;100.00;101364.28;4120107;28;20084;-76
2023/06/05 04:54:33;;;;;;;7.15;3.42;;;13.10;99.90;;;12.63;100.00;101375.59;4120215;28;20023;-76
2023/06/05 04:56:34;;;;;;;7.45;3.40;;;13.10;99.90;;;12.50;100.00;101350.53;4130806;28;20053;-76
2023/06/05 04:58:35;;;;;;;9.07;3.83;;;13.10;99.90;;;12.48;100.00;101345.41;4121334;28;20514;-76
2023/06/05 05:00:36;;;;;;;7.70;3.05;;;13.10;99.90;;;12.53;100.00;101356.34;4121279;28;20035;-76
2023/06/05 05:02:37;;;;;;;10.85;3.33;;;13.10;99.90;;;12.57;100.00;101354.22;4122894;28;20037;-76
2023/06/05 05:04:38;;;;;;;9.48;3.50;;;13.10;99.90;;;12.71;100.00;101382.78;4131139;28;20035;-76
2023/06/05 05:06:40;;;;;;;7.65;3.53;;;13.20;99.90;;;12.72;100.00;101384.47;4135814;28;20062;-75
2023/06/05 05:08:43;;;;;;;11.77;3.30;;;13.20;99.90;;;12.60;100.00;101356.56;4119248;28;20099;-76
2023/06/05 05:10:44;;;;;;;7.78;3.92;;;13.20;99.90;;;12.73;100.00;101378.16;4129315;28;20089;-76
2023/06/05 05:12:45;;;;;;;9.00;3.63;;;13.20;99.90;;;12.68;100.00;101361.91;4123451;28;20027;-76
2023/06/05 05:14:46;;;;;;;9.75;3.60;;;13.30;99.90;;;12.84;100.00;101383.22;4120913;28;20062;-76
2023/06/05 05:16:47;;;;;;;9.77;2.83;;;13.30;99.90;;;12.88;100.00;101381.06;4132909;28;20066;-76
2023/06/05 05:18:48;;;;;;;9.10;3.88;;;13.30;99.90;;;12.78;100.00;101368.75;4151884;28;20026;-76
2023/06/05 05:20:49;;;;;;;9.73;3.00;;;13.40;99.90;;;12.88;100.00;101368.66;4136933;28;20494;-76
2023/06/05 05:22:50;;;;;;;9.38;3.65;;;13.40;99.90;;;12.86;100.00;101365.34;4129032;28;20030;-76
2023/06/05 05:24:51;;;;;;;7.78;3.97;;;13.40;99.90;;;12.83;100.00;101357.72;4121177;28;20086;-76
2023/06/05 05:26:52;;;;;;;8.40;3.78;;;13.50;99.90;;;12.97;100.00;101375.69;4120876;28;20057;-76
2023/06/05 05:28:53;;;;;;;6.78;3.58;;;13.50;99.90;;;13.02;100.00;101375.22;4103493;28;20031;-76
2023/06/05 05:30:57;;;;;;;7.72;3.03;;;13.50;99.90;;;12.96;100.00;101366.06;4120827;28;20025;-76
2023/06/05 05:32:58;;;;;;;8.93;3.58;;;13.60;99.90;;;13.02;100.00;101369.94;4119756;28;20035;-76
2023/06/05 05:34:59;;;;;;;5.85;2.75;;;13.60;99.90;;;13.00;100.00;101363.94;4121440;28;20050;-76
2023/06/05 05:37:01;;;;;;;10.18;3.10;;;13.60;99.90;;;13.11;100.00;101376.97;4132572;28;20062;-76
2023/06/05 05:39:04;;;;;;;6.43;2.95;;;13.70;99.90;;;13.21;100.00;101388.28;4120808;28;20019;-76
2023/06/05 05:41:05;;;;;;;8.65;3.80;;;13.70;99.90;;;13.25;100.00;101390.47;4119781;28;20055;-76
2023/06/05 05:43:06;;;;;;;9.73;4.65;;;13.70;99.90;;;13.12;100.00;101366.19;4119448;28;20025;-76
2023/06/05 05:45:08;;;;;;;10.77;4.00;;;13.80;99.90;;;13.20;100.00;101370.72;4119422;28;20031;-76
2023/06/05 05:47:09;;;;;;;8.23;3.38;;;13.70;99.90;;;13.20;100.00;101362.78;4120514;28;20015;-76
2023/06/05 05:49:09;;;;;;;11.38;3.55;;;13.80;99.90;;;13.21;100.00;101357.31;4131733;28;20531;-76
2023/06/05 05:51:10;;;;;;;8.82;3.22;;;13.90;99.90;;;13.26;100.00;101362.97;4151234;28;20018;-76
2023/06/05 05:53:11;;;;;;;9.57;4.07;;;13.90;99.90;;;13.41;100.00;101375.63;4136917;28;20023;-76
2023/06/05 05:55:12;;;;;;;8.60;3.53;;;13.90;99.90;;;13.53;100.00;101388.41;4119080;28;20027;-77
2023/06/05 05:57:13;;;;;;;11.15;4.70;;;14.00;99.90;;;13.51;100.00;101371.03;4119374;28;20052;-76
2023/06/05 05:59:14;;;;;;;7.93;3.53;;;14.00;99.90;;;13.76;100.00;101389.53;4136612;28;20026;-76
2023/06/05 06:01:15;;;;;;;13.95;4.18;;;14.10;99.90;;;13.78;100.00;101390.19;4136547;28;20058;-76
2023/06/05 06:03:17;;;;;;;12.27;3.72;;;14.20;99.90;;;13.81;100.00;101383.72;4135320;28;20077;-76
2023/06/05 06:05:18;;;;;;;12.15;3.88;;;14.20;99.90;;;13.75;100.00;101365.81;4124859;28;20030;-76
2023/06/05 06:07:19;;;;;;;9.45;3.42;;;14.30;99.90;;;13.92;100.00;101391.38;4123276;28;20101;-75
2023/06/05 06:09:20;;;;;;;12.07;4.03;;;14.30;99.90;;;13.95;100.00;101395.56;4124448;28;20026;-76
2023/06/05 06:11:21;;;;;;;8.60;3.60;;;14.40;99.90;;;13.98;100.00;101390.72;4129620;28;20054;-76
2023/06/05 06:13:22;;;;;;;10.90;4.18;;;14.40;99.90;;;13.94;100.00;101384.09;4120443;28;20030;-76
2023/06/05 06:15:23;;;;;;;12.40;4.05;;;14.50;99.90;;;14.01;100.00;101384.28;4118864;28;20097;-76
2023/06/05 06:17:24;;;;;;;7.45;3.40;;;14.50;99.90;;;13.90;100.00;101361.53;4119928;28;20102;-76
2023/06/05 06:19:25;;;;;;;10.40;3.95;;;14.60;99.90;;;14.04;100.00;101384.78;4135015;28;20034;-75
2023/06/05 06:21:26;;;;;;;8.48;3.70;;;14.60;99.90;;;14.10;100.00;101378.81;4102586;28;20024;-75
2023/06/05 06:23:27;;;;;;;7.05;3.10;;;14.60;99.90;;;14.17;100.00;101385.13;4120451;28;20221;-74
2023/06/05 06:25:31;;;;;;;9.13;3.30;;;14.70;99.90;;;14.17;100.00;101373.69;4120071;28;20030;-76
2023/06/05 06:27:32;;;;;;;7.72;3.45;;;14.70;99.90;;;14.24;100.00;101380.84;4123808;28;20026;-75
2023/06/05 06:29:33;;;;;;;10.70;3.40;;;14.80;99.90;;;14.44;100.00;101399.13;4126135;28;20034;-75
2023/06/05 06:31:34;;;;;;;11.63;4.32;;;14.90;99.90;;;14.39;100.00;101387.16;4119977;28;20089;-75
2023/06/05 06:33:36;;;;;;;9.15;3.38;;;15.00;99.90;;;14.55;100.00;101398.78;4120171;28;20462;-75
2023/06/05 06:35:37;;;;;;;7.90;3.00;;;15.00;99.90;;;14.48;100.00;101380.06;4102548;28;20051;-75
2023/06/05 06:37:38;;;;;;;13.55;3.88;;;15.10;99.90;;;14.67;100.00;101397.47;4125580;28;20397;-76
2023/06/05 06:39:39;;;;;;;8.13;3.13;;;15.10;99.90;;;14.79;100.00;101414.72;4123409;28;20027;-75
2023/06/05 06:41:40;;;;;;;6.13;2.75;;;15.20;99.90;;;14.78;100.00;101394.50;4119954;28;20446;-75
2023/06/05 06:43:41;;;;;;;7.70;3.60;;;15.30;99.90;;;14.88;100.00;101411.06;4127401;28;20028;-75
2023/06/05 06:45:41;;;;;;;7.50;2.70;;;15.30;99.90;;;14.95;100.00;101410.25;4150533;28;20026;-75
2023/06/05 06:47:43;;;;;;;7.20;2.75;;;15.40;99.90;;;14.91;100.00;101395.63;4150874;28;20076;-75
2023/06/05 06:49:44;;;;;;;8.82;3.20;;;15.40;99.90;;;15.06;100.00;101411.72;4140730;28;20520;-82
2023/06/05 06:51:45;;;;;;;9.13;3.58;;;15.50;99.90;;;15.08;100.00;101400.94;4118142;28;20035;-82
2023/06/05 06:53:45;;;;;;;6.50;3.60;;;15.60;99.90;;;15.14;100.00;101384.31;4142652;28;20405;-83
2023/06/05 06:55:46;;;;;;;8.43;2.90;;;15.70;99.90;;;15.18;100.00;101386.44;4135456;28;20647;-81
2023/06/05 06:57:47;;;;;;;6.88;3.17;;;15.70;99.90;;;15.29;100.00;101388.72;4134639;28;20027;-79
2023/06/05 06:59:48;;;;;;;10.63;3.25;;;15.80;99.90;;;15.45;100.00;101404.63;4150550;28;20473;-77
2023/06/05 07:02:11;;;;;;;6.43;3.28;;;15.90;99.90;;;15.58;100.00;101405.97;4134006;28;20042;-77
2023/06/05 07:04:16;;;;;;;6.82;2.90;;;16.00;99.90;;;15.65;100.00;101414.91;4133336;28;20556;-80
2023/06/05 07:06:17;;;;;;;10.70;4.07;;;16.10;99.90;;;15.68;100.00;101419.91;4117931;28;20089;-82
2023/06/05 07:08:18;;;;;;;7.45;3.30;;;16.20;99.90;;;15.66;100.00;101405.91;4121523;28;20538;-85
2023/06/05 07:10:19;;;;;;;7.00;3.00;;;16.20;99.90;;;15.70;100.00;101402.75;4118132;28;20035;-82
2023/06/05 07:12:22;;;;;;;11.48;3.30;;;16.30;99.90;;;15.73;100.00;101391.78;4125894;28;20105;-83
2023/06/05 07:14:23;;;;;;;6.60;2.88;;;16.30;99.90;;;15.81;100.00;101390.88;4117822;28;20082;-80
2023/06/05 07:16:24;;;;;;;5.35;2.95;;;16.40;99.90;;;15.94;100.00;101399.13;4135153;28;20047;-77
2023/06/05 07:18:26;;;;;;;7.20;3.03;;;16.50;99.90;;;16.00;100.00;101396.63;4134615;28;20058;-80
2023/06/05 07:20:26;;;;;;;9.10;3.20;;;16.60;99.90;;;15.99;100.00;101384.31;4120555;28;20023;-78
2023/06/05 07:22:29;;;;;;;6.82;2.83;;;16.60;99.90;;;16.04;100.00;101391.75;4120959;28;20031;-79
2023/06/05 07:24:31;;;;;;;8.80;3.65;;;16.70;99.90;;;16.17;100.00;101393.84;4117566;28;20058;-78
2023/06/05 07:26:32;;;;;;;7.80;2.85;;;16.70;99.90;;;16.25;100.00;101397.28;4119219;28;20090;-78
2023/06/05 07:28:33;;;;;;;9.00;3.13;;;16.90;99.90;;;16.28;100.00;101396.91;4129915;28;20445;-78
2023/06/05 07:30:34;;;;;;;5.95;2.83;;;16.90;99.90;;;16.51;100.00;101410.25;4134190;28;20042;-78
2023/06/05 07:32:35;;;;;;;6.50;3.20;;;17.00;99.90;;;16.59;99.86;101421.69;4120623;28;20023;-76
2023/06/05 07:34:36;;;;;;;7.82;2.75;;;17.10;99.90;;;16.58;100.00;101401.38;4122599;28;20045;-78
2023/06/05 07:36:38;;;;;;;7.47;2.65;;;17.20;99.90;;;16.68;100.00;101410.97;4121108;28;20035;-78
2023/06/05 07:38:40;;;;;;;6.57;3.33;;;17.20;99.90;;;16.76;98.47;101410.88;4122689;28;20507;-81
2023/06/05 07:40:41;;;;;;;7.50;3.28;;;17.30;99.90;;;16.77;97.42;101397.41;4122548;28;20081;-79
2023/06/05 07:42:42;;;;;;;7.15;2.95;;;17.40;99.90;;;16.87;95.23;101405.16;4124279;28;20029;-80
2023/06/05 07:44:43;;;;;;;6.22;2.45;;;17.50;99.90;;;16.94;94.57;101400.72;4137763;28;20034;-80
2023/06/05 07:46:46;;;;;;;9.27;2.70;;;17.60;99.90;;;17.12;92.63;101411.88;4136722;28;20069;-82
2023/06/05 07:48:47;;;;;;;5.30;2.90;;;17.60;99.90;;;17.24;91.68;101421.09;4136424;28;20038;-79
2023/06/05 07:50:48;;;;;;;9.30;3.08;;;17.70;99.90;;;17.26;91.26;101416.41;4132618;28;20046;-80
2023/06/05 07:52:49;;;;;;;9.15;3.15;;;17.80;99.90;;;17.28;90.71;101401.06;4137663;28;20040;-84
2023/06/05 07:54:50;;;;;;;8.18;2.70;;;17.90;99.90;;;17.52;89.77;101411.44;4136484;28;20038;-82
2023/06/05 07:56:51;;;;;;;8.65;3.65;;;18.00;99.90;;;17.63;89.27;101415.50;4136401;28;20486;-81
2023/06/05 07:58:52;;;;;;;6.30;2.60;;;18.00;99.90;;;17.59;89.00;101392.91;4127233;28;20034;-80
2023/06/05 08:00:53;;;;;;;7.35;2.63;;;18.10;99.90;;;17.78;89.05;101407.47;4129021;28;20030;-83
2023/06/05 08:02:54;;;;;;;10.18;2.83;;;18.20;99.90;;;17.84;88.13;101402.22;4136466;28;20054;-81
2023/06/05 08:04:55;;;;;;;8.98;3.10;;;18.30;99.90;;;17.97;86.94;101404.22;4130639;28;20027;-84
2023/06/05 08:06:56;;;;;;;6.43;3.15;;;18.40;99.90;;;18.13;85.37;101412.81;4125051;28;20031;-80
2023/06/05 08:08:59;;;;;;;8.85;2.58;;;18.60;99.90;;;18.21;83.97;101394.03;4122926;28;20031;-80
2023/06/05 08:11:00;;;;;;;8.10;2.47;;;18.60;99.90;;;18.21;82.95;101394.03;4136693;28;20030;-79
2023/06/05 08:13:01;;;;;;;5.93;2.45;;;18.70;99.90;;;18.51;83.30;101412.63;4137897;28;20030;-79
2023/06/05 08:15:02;;;;;;;6.65;2.95;;;18.80;99.90;;;18.52;80.74;101407.09;4137835;28;20109;-79
2023/06/05 08:17:03;;;;;;;5.05;2.30;;;18.90;99.70;;;18.57;79.78;101395.84;4137701;28;20023;-79
2023/06/05 08:19:04;;;;;;;5.85;2.22;;;19.00;99.50;;;18.78;79.62;101407.34;4134078;28;20402;-79
2023/06/05 08:21:06;;;;;;;5.68;2.60;;;19.10;99.40;;;18.76;79.35;101387.97;4121663;28;20438;-79
2023/06/05 08:23:06;;;;;;;9.32;2.67;;;19.20;99.50;;;19.00;78.57;101394.72;4123081;28;20034;-79